sensor_id;sensor_type;location;lat;lon;timestamp;pressure;altitude;pressure_sealevel;temperature;humidity
76011;BME280;64701;43.536;1.478;2023-08-06T00:01:22;99865.81;;;18.39;96.07
76011;BME280;64701;43.536;1.478;2023-08-06T00:03:47;99883.19;;;18.36;96.30
76011;BME280;64701;43.536;1.478;2023-08-06T00:06:13;99877.25;;;18.34;96.07
76011;BME280;64701;43.536;1.478;2023-08-06T00:08:38;99879.47;;;18.38;94.87
76011;BME280;64701;43.536;1.478;2023-08-06T00:11:03;99868.97;;;18.36;94.92
76011;BME280;64701;43.536;1.478;2023-08-06T00:13:29;99868.03;;;18.30;95.89
76011;BME280;64701;43.536;1.478;2023-08-06T00:15:54;99870.00;;;18.23;96.32
76011;BME280;64701;43.536;1.478;2023-08-06T00:18:19;99885.41;;;18.28;95.85
76011;BME280;64701;43.536;1.478;2023-08-06T00:20:44;99877.47;;;18.21;96.99
76011;BME280;64701;43.536;1.478;2023-08-06T00:23:10;99887.38;;;18.32;95.40
76011;BME280;64701;43.536;1.478;2023-08-06T00:25:36;99878.41;;;18.39;94.16
76011;BME280;64701;43.536;1.478;2023-08-06T00:28:01;99884.22;;;18.35;95.11
76011;BME280;64701;43.536;1.478;2023-08-06T00:30:26;99887.03;;;18.41;94.11
76011;BME280;64701;43.536;1.478;2023-08-06T00:32:51;99889.13;;;18.39;94.80
76011;BME280;64701;43.536;1.478;2023-08-06T00:35:17;99881.19;;;18.44;93.61
76011;BME280;64701;43.536;1.478;2023-08-06T00:37:42;99877.81;;;18.48;93.22
76011;BME280;64701;43.536;1.478;2023-08-06T00:40:07;99880.75;;;18.47;93.98
76011;BME280;64701;43.536;1.478;2023-08-06T00:42:33;99886.44;;;18.50;92.81
76011;BME280;64701;43.536;1.478;2023-08-06T00:44:59;99890.28;;;18.43;93.22
76011;BME280;64701;43.536;1.478;2023-08-06T00:47:25;99881.91;;;18.27;94.67
76011;BME280;64701;43.536;1.478;2023-08-06T00:49:50;99887.38;;;18.32;93.43
76011;BME280;64701;43.536;1.478;2023-08-06T00:52:16;99875.25;;;18.30;93.77
76011;BME280;64701;43.536;1.478;2023-08-06T00:54:41;99887.38;;;18.21;93.57
76011;BME280;64701;43.536;1.478;2023-08-06T00:57:07;99883.28;;;18.18;93.33
76011;BME280;64701;43.536;1.478;2023-08-06T00:59:33;99898.31;;;18.19;92.79
76011;BME280;64701;43.536;1.478;2023-08-06T01:01:59;99895.66;;;18.19;92.70
76011;BME280;64701;43.536;1.478;2023-08-06T01:04:24;99900.66;;;18.16;92.61
76011;BME280;64701;43.536;1.478;2023-08-06T01:07:35;99895.75;;;18.13;92.64
76011;BME280;64701;43.536;1.478;2023-08-06T01:09:58;99900.41;;;18.06;92.49
76011;BME280;64701;43.536;1.478;2023-08-06T01:17:24;99889.44;;;17.95;90.84
76011;BME280;64701;43.536;1.478;2023-08-06T01:19:51;99896.66;;;17.95;90.19
76011;BME280;64701;43.536;1.478;2023-08-06T01:22:17;99897.25;;;17.97;90.10
76011;BME280;64701;43.536;1.478;2023-08-06T01:24:42;99907.97;;;17.97;89.87
76011;BME280;64701;43.536;1.478;2023-08-06T01:27:14;99912.50;;;17.97;88.84
76011;BME280;64701;43.536;1.478;2023-08-06T01:30:24;99920.34;;;17.98;89.00
76011;BME280;64701;43.536;1.478;2023-08-06T01:32:30;99919.84;;;18.01;88.28
76011;BME280;64701;43.536;1.478;2023-08-06T01:34:56;99918.38;;;18.05;88.16
76011;BME280;64701;43.536;1.478;2023-08-06T01:37:24;99923.03;;;18.10;87.77
76011;BME280;64701;43.536;1.478;2023-08-06T01:39:50;99922.66;;;18.06;87.04
76011;BME280;64701;43.536;1.478;2023-08-06T01:42:15;99925.50;;;18.11;85.90
76011;BME280;64701;43.536;1.478;2023-08-06T01:44:40;99923.84;;;18.10;85.58
76011;BME280;64701;43.536;1.478;2023-08-06T01:47:06;99928.00;;;18.06;85.18
76011;BME280;64701;43.536;1.478;2023-08-06T01:49:31;99922.66;;;18.06;84.68
76011;BME280;64701;43.536;1.478;2023-08-06T01:51:56;99927.34;;;17.99;84.27
76011;BME280;64701;43.536;1.478;2023-08-06T01:54:22;99925.44;;;18.00;84.21
76011;BME280;64701;43.536;1.478;2023-08-06T01:56:47;99929.41;;;17.97;83.58
76011;BME280;64701;43.536;1.478;2023-08-06T01:59:13;99929.75;;;18.01;83.72
76011;BME280;64701;43.536;1.478;2023-08-06T02:01:38;99921.06;;;18.05;83.40
76011;BME280;64701;43.536;1.478;2023-08-06T02:04:03;99924.41;;;18.01;81.91
76011;BME280;64701;43.536;1.478;2023-08-06T02:06:28;99920.78;;;18.07;82.20
76011;BME280;64701;43.536;1.478;2023-08-06T02:08:54;99929.53;;;18.02;81.91
76011;BME280;64701;43.536;1.478;2023-08-06T02:11:19;99922.66;;;18.06;81.48
76011;BME280;64701;43.536;1.478;2023-08-06T02:13:45;99924.28;;;18.07;81.71
76011;BME280;64701;43.536;1.478;2023-08-06T02:16:10;99928.94;;;18.00;81.09
76011;BME280;64701;43.536;1.478;2023-08-06T02:18:36;99922.41;;;17.96;80.00
76011;BME280;64701;43.536;1.478;2023-08-06T02:21:01;99918.56;;;17.92;79.07
76011;BME280;64701;43.536;1.478;2023-08-06T02:23:26;99920.84;;;17.77;79.00
76011;BME280;64701;43.536;1.478;2023-08-06T02:28:23;99914.44;;;17.78;78.40
76011;BME280;64701;43.536;1.478;2023-08-06T02:30:51;99912.06;;;17.70;76.69
76011;BME280;64701;43.536;1.478;2023-08-06T02:33:17;99913.66;;;17.59;73.96
76011;BME280;64701;43.536;1.478;2023-08-06T02:35:42;99904.78;;;17.59;74.55
76011;BME280;64701;43.536;1.478;2023-08-06T02:38:07;99907.94;;;17.55;74.03
76011;BME280;64701;43.536;1.478;2023-08-06T02:40:32;99913.91;;;17.58;72.29
76011;BME280;64701;43.536;1.478;2023-08-06T02:42:57;99926.22;;;17.59;71.88
76011;BME280;64701;43.536;1.478;2023-08-06T02:45:23;99922.31;;;17.61;71.77
76011;BME280;64701;43.536;1.478;2023-08-06T02:47:48;99927.84;;;17.60;70.26
76011;BME280;64701;43.536;1.478;2023-08-06T02:50:13;99923.53;;;17.59;70.05
76011;BME280;64701;43.536;1.478;2023-08-06T02:52:39;99922.03;;;17.51;68.45
76011;BME280;64701;43.536;1.478;2023-08-06T02:55:05;99910.16;;;17.59;68.33
76011;BME280;64701;43.536;1.478;2023-08-06T02:57:31;99908.09;;;17.61;68.09
76011;BME280;64701;43.536;1.478;2023-08-06T02:59:56;99911.94;;;17.65;68.07
76011;BME280;64701;43.536;1.478;2023-08-06T03:02:21;99910.00;;;17.72;68.00
76011;BME280;64701;43.536;1.478;2023-08-06T03:04:46;99901.38;;;17.70;67.39
76011;BME280;64701;43.536;1.478;2023-08-06T03:07:12;99902.69;;;17.79;68.53
76011;BME280;64701;43.536;1.478;2023-08-06T03:09:37;99908.38;;;17.71;67.52
76011;BME280;64701;43.536;1.478;2023-08-06T03:12:02;99904.28;;;17.68;66.98
76011;BME280;64701;43.536;1.478;2023-08-06T03:14:28;99899.50;;;17.70;66.66
76011;BME280;64701;43.536;1.478;2023-08-06T03:16:55;99893.34;;;17.70;67.42
76011;BME280;64701;43.536;1.478;2023-08-06T03:19:20;99903.00;;;17.71;67.24
76011;BME280;64701;43.536;1.478;2023-08-06T03:21:45;99909.66;;;17.68;67.83
76011;BME280;64701;43.536;1.478;2023-08-06T03:24:11;99899.84;;;17.62;68.14
76011;BME280;64701;43.536;1.478;2023-08-06T03:26:36;99902.75;;;17.61;68.48
76011;BME280;64701;43.536;1.478;2023-08-06T03:29:01;99900.19;;;17.66;68.87
76011;BME280;64701;43.536;1.478;2023-08-06T03:31:26;99899.03;;;17.62;68.74
76011;BME280;64701;43.536;1.478;2023-08-06T03:33:52;99904.38;;;17.62;69.64
76011;BME280;64701;43.536;1.478;2023-08-06T03:36:17;99910.09;;;17.47;70.34
76011;BME280;64701;43.536;1.478;2023-08-06T03:38:42;99916.28;;;17.47;71.23
76011;BME280;64701;43.536;1.478;2023-08-06T03:41:07;99912.56;;;17.48;71.62
76011;BME280;64701;43.536;1.478;2023-08-06T03:43:33;99912.34;;;17.50;71.86
76011;BME280;64701;43.536;1.478;2023-08-06T03:45:58;99921.34;;;17.55;72.32
76011;BME280;64701;43.536;1.478;2023-08-06T03:48:23;99914.94;;;17.57;72.55
76011;BME280;64701;43.536;1.478;2023-08-06T03:50:48;99917.31;;;17.65;72.24
76011;BME280;64701;43.536;1.478;2023-08-06T03:53:14;99922.31;;;17.61;72.56
76011;BME280;64701;43.536;1.478;2023-08-06T03:55:39;99916.66;;;17.69;72.19
76011;BME280;64701;43.536;1.478;2023-08-06T03:58:04;99930.25;;;17.68;72.05
76011;BME280;64701;43.536;1.478;2023-08-06T04:00:30;99924.19;;;17.61;72.23
76011;BME280;64701;43.536;1.478;2023-08-06T04:02:55;99928.16;;;17.70;71.96
76011;BME280;64701;43.536;1.478;2023-08-06T04:05:20;99929.22;;;17.69;71.65
76011;BME280;64701;43.536;1.478;2023-08-06T04:07:45;99932.25;;;17.72;71.71
76011;BME280;64701;43.536;1.478;2023-08-06T04:10:11;99932.25;;;17.72;71.11
76011;BME280;64701;43.536;1.478;2023-08-06T04:12:36;99934.09;;;17.72;70.19
76011;BME280;64701;43.536;1.478;2023-08-06T04:15:04;99930.59;;;17.71;70.04
76011;BME280;64701;43.536;1.478;2023-08-06T04:17:29;99937.16;;;17.75;69.34
76011;BME280;64701;43.536;1.478;2023-08-06T04:19:55;99932.72;;;17.69;67.33
76011;BME280;64701;43.536;1.478;2023-08-06T04:22:23;99935.22;;;17.64;67.45
76011;BME280;64701;43.536;1.478;2023-08-06T04:24:48;99945.72;;;17.66;66.33
76011;BME280;64701;43.536;1.478;2023-08-06T04:27:14;99949.00;;;17.68;66.32
76011;BME280;64701;43.536;1.478;2023-08-06T04:29:39;99943.44;;;17.69;66.81
76011;BME280;64701;43.536;1.478;2023-08-06T04:32:06;99942.16;;;17.72;66.45
76011;BME280;64701;43.536;1.478;2023-08-06T04:34:31;99949.22;;;17.66;67.10
76011;BME280;64701;43.536;1.478;2023-08-06T04:36:56;99945.28;;;17.69;67.91
76011;BME280;64701;43.536;1.478;2023-08-06T04:39:22;99959.84;;;17.73;68.29
76011;BME280;64701;43.536;1.478;2023-08-06T04:41:47;99962.66;;;17.78;68.82
76011;BME280;64701;43.536;1.478;2023-08-06T04:44:12;99962.41;;;17.68;70.20
76011;BME280;64701;43.536;1.478;2023-08-06T04:46:37;99963.94;;;17.75;70.48
76011;BME280;64701;43.536;1.478;2023-08-06T04:49:03;99958.94;;;17.79;70.52
76011;BME280;64701;43.536;1.478;2023-08-06T04:51:28;99956.13;;;17.74;70.94
76011;BME280;64701;43.536;1.478;2023-08-06T04:53:53;99964.31;;;17.79;70.87
76011;BME280;64701;43.536;1.478;2023-08-06T04:56:18;99957.09;;;17.79;71.12
76011;BME280;64701;43.536;1.478;2023-08-06T04:58:44;99955.09;;;17.75;71.56
76011;BME280;64701;43.536;1.478;2023-08-06T05:01:09;99962.53;;;17.73;72.12
76011;BME280;64701;43.536;1.478;2023-08-06T05:03:34;99959.25;;;17.71;71.68
76011;BME280;64701;43.536;1.478;2023-08-06T05:06:00;99955.41;;;17.67;71.48
76011;BME280;64701;43.536;1.478;2023-08-06T05:08:25;99967.03;;;17.61;72.00
76011;BME280;64701;43.536;1.478;2023-08-06T05:10:50;99970.88;;;17.65;71.96
76011;BME280;64701;43.536;1.478;2023-08-06T05:13:15;99969.47;;;17.62;72.04
76011;BME280;64701;43.536;1.478;2023-08-06T05:15:41;99971.91;;;17.64;72.36
76011;BME280;64701;43.536;1.478;2023-08-06T05:18:07;99982.63;;;17.64;72.07
76011;BME280;64701;43.536;1.478;2023-08-06T05:20:35;99981.28;;;17.54;72.40
76011;BME280;64701;43.536;1.478;2023-08-06T05:23:00;99974.41;;;17.59;72.50
76011;BME280;64701;43.536;1.478;2023-08-06T05:25:26;99983.28;;;17.59;72.32
76011;BME280;64701;43.536;1.478;2023-08-06T05:27:51;99971.34;;;17.62;72.34
76011;BME280;64701;43.536;1.478;2023-08-06T05:30:16;99987.06;;;17.70;72.38
76011;BME280;64701;43.536;1.478;2023-08-06T05:32:42;99987.69;;;17.72;72.00
76011;BME280;64701;43.536;1.478;2023-08-06T05:35:07;99995.84;;;17.77;71.99
76011;BME280;64701;43.536;1.478;2023-08-06T05:37:32;99998.53;;;17.77;72.06
76011;BME280;64701;43.536;1.478;2023-08-06T05:39:57;99993.97;;;17.77;71.92
76011;BME280;64701;43.536;1.478;2023-08-06T05:42:23;99997.03;;;17.81;71.44
76011;BME280;64701;43.536;1.478;2023-08-06T05:44:48;99994.81;;;17.78;71.01
76011;BME280;64701;43.536;1.478;2023-08-06T05:47:13;99995.72;;;17.72;71.16
76011;BME280;64701;43.536;1.478;2023-08-06T05:49:38;100003.13;;;17.70;71.42
76011;BME280;64701;43.536;1.478;2023-08-06T05:52:04;100006.06;;;17.68;70.90
76011;BME280;64701;43.536;1.478;2023-08-06T05:54:31;100007.09;;;17.67;70.97
76011;BME280;64701;43.536;1.478;2023-08-06T05:56:56;100020.41;;;17.74;70.47
76011;BME280;64701;43.536;1.478;2023-08-06T05:59:22;100021.25;;;17.74;70.38
76011;BME280;64701;43.536;1.478;2023-08-06T06:01:47;100025.91;;;17.79;70.30
76011;BME280;64701;43.536;1.478;2023-08-06T06:04:12;100025.44;;;17.82;70.40
76011;BME280;64701;43.536;1.478;2023-08-06T06:06:38;100033.94;;;17.79;70.36
76011;BME280;64701;43.536;1.478;2023-08-06T06:09:03;100031.28;;;17.79;70.22
76011;BME280;64701;43.536;1.478;2023-08-06T06:11:28;100024.88;;;17.80;70.05
76011;BME280;64701;43.536;1.478;2023-08-06T06:13:54;100028.59;;;17.79;69.68
76011;BME280;64701;43.536;1.478;2023-08-06T06:16:19;100030.00;;;17.81;69.68
76011;BME280;64701;43.536;1.478;2023-08-06T06:18:44;100035.25;;;17.88;69.39
76011;BME280;64701;43.536;1.478;2023-08-06T06:21:10;100033.41;;;17.88;69.48
76011;BME280;64701;43.536;1.478;2023-08-06T06:23:35;100036.47;;;17.92;69.47
76011;BME280;64701;43.536;1.478;2023-08-06T06:26:00;100038.75;;;17.88;69.43
76011;BME280;64701;43.536;1.478;2023-08-06T06:28:26;100047.03;;;17.87;69.51
76011;BME280;64701;43.536;1.478;2023-08-06T06:30:51;100045.00;;;17.82;68.97
76011;BME280;64701;43.536;1.478;2023-08-06T06:33:16;100045.41;;;17.86;69.29
76011;BME280;64701;43.536;1.478;2023-08-06T06:35:42;100040.84;;;17.86;69.29
76011;BME280;64701;43.536;1.478;2023-08-06T06:38:07;100056.94;;;17.86;69.25
76011;BME280;64701;43.536;1.478;2023-08-06T06:40:32;100055.22;;;17.92;69.16
76011;BME280;64701;43.536;1.478;2023-08-06T06:42:58;100060.09;;;17.95;69.17
76011;BME280;64701;43.536;1.478;2023-08-06T06:45:23;100064.00;;;17.99;69.05
76011;BME280;64701;43.536;1.478;2023-08-06T06:47:48;100070.38;;;17.98;69.15
76011;BME280;64701;43.536;1.478;2023-08-06T06:50:13;100062.34;;;17.98;69.45
76011;BME280;64701;43.536;1.478;2023-08-06T06:52:39;100063.88;;;18.06;68.63
76011;BME280;64701;43.536;1.478;2023-08-06T06:55:04;100064.84;;;18.11;68.55
76011;BME280;64701;43.536;1.478;2023-08-06T06:57:30;100071.91;;;18.06;67.92
76011;BME280;64701;43.536;1.478;2023-08-06T06:59:55;100064.69;;;18.06;67.50
76011;BME280;64701;43.536;1.478;2023-08-06T07:02:20;100070.53;;;18.03;66.83
76011;BME280;64701;43.536;1.478;2023-08-06T07:04:45;100067.25;;;18.01;66.75
76011;BME280;64701;43.536;1.478;2023-08-06T07:07:11;100078.81;;;18.13;67.69
76011;BME280;64701;43.536;1.478;2023-08-06T07:09:36;100076.63;;;18.10;66.26
76011;BME280;64701;43.536;1.478;2023-08-06T07:12:01;100073.13;;;18.10;66.04
76011;BME280;64701;43.536;1.478;2023-08-06T07:14:27;100084.44;;;18.23;66.05
76011;BME280;64701;43.536;1.478;2023-08-06T07:16:53;100084.34;;;18.30;66.14
76011;BME280;64701;43.536;1.478;2023-08-06T07:19:18;100086.09;;;18.24;66.33
76011;BME280;64701;43.536;1.478;2023-08-06T07:21:44;100090.09;;;18.33;66.36
76011;BME280;64701;43.536;1.478;2023-08-06T07:24:09;100091.38;;;18.31;65.34
76011;BME280;64701;43.536;1.478;2023-08-06T07:26:34;100094.16;;;18.36;65.49
76011;BME280;64701;43.536;1.478;2023-08-06T07:29:00;100085.47;;;18.41;65.93
76011;BME280;64701;43.536;1.478;2023-08-06T07:31:25;100095.28;;;18.47;66.27
76011;BME280;64701;43.536;1.478;2023-08-06T07:33:51;100090.97;;;18.46;65.37
76011;BME280;64701;43.536;1.478;2023-08-06T07:36:16;100092.81;;;18.45;65.03
76011;BME280;64701;43.536;1.478;2023-08-06T07:38:41;100094.47;;;18.46;64.59
76011;BME280;64701;43.536;1.478;2023-08-06T07:41:07;100090.22;;;18.39;64.13
76011;BME280;64701;43.536;1.478;2023-08-06T07:43:33;100095.03;;;18.48;64.76
76011;BME280;64701;43.536;1.478;2023-08-06T07:45:58;100092.88;;;18.57;64.38
76011;BME280;64701;43.536;1.478;2023-08-06T07:48:25;100094.53;;;18.58;64.01
76011;BME280;64701;43.536;1.478;2023-08-06T07:50:56;100092.91;;;18.68;64.48
76011;BME280;64701;43.536;1.478;2023-08-06T07:53:22;100089.53;;;18.85;64.32
76011;BME280;64701;43.536;1.478;2023-08-06T07:55:51;100086.75;;;18.91;63.67
76011;BME280;64701;43.536;1.478;2023-08-06T07:58:17;100082.09;;;18.98;63.16
76011;BME280;64701;43.536;1.478;2023-08-06T08:00:42;100073.94;;;18.93;62.17
76011;BME280;64701;43.536;1.478;2023-08-06T08:03:10;100077.53;;;19.10;63.19
76011;BME280;64701;43.536;1.478;2023-08-06T08:05:35;100077.66;;;19.15;61.40
76011;BME280;64701;43.536;1.478;2023-08-06T08:08:01;100078.38;;;19.23;61.13
76011;BME280;64701;43.536;1.478;2023-08-06T08:10:26;100083.25;;;19.26;61.82
76011;BME280;64701;43.536;1.478;2023-08-06T08:12:51;100082.31;;;19.32;60.69
76011;BME280;64701;43.536;1.478;2023-08-06T08:15:16;100083.94;;;19.33;61.13
76011;BME280;64701;43.536;1.478;2023-08-06T08:17:42;100084.66;;;19.40;60.46
76011;BME280;64701;43.536;1.478;2023-08-06T08:20:08;100078.97;;;19.48;60.16
76011;BME280;64701;43.536;1.478;2023-08-06T08:22:34;100079.75;;;19.60;60.79
76011;BME280;64701;43.536;1.478;2023-08-06T08:24:59;100080.91;;;19.64;59.06
76011;BME280;64701;43.536;1.478;2023-08-06T08:27:24;100078.03;;;19.54;59.56
76011;BME280;64701;43.536;1.478;2023-08-06T08:29:49;100088.59;;;19.72;59.55
76011;BME280;64701;43.536;1.478;2023-08-06T08:32:15;100074.31;;;19.83;59.36
76011;BME280;64701;43.536;1.478;2023-08-06T08:34:40;100088.41;;;19.90;58.76
76011;BME280;64701;43.536;1.478;2023-08-06T08:37:05;100076.66;;;19.80;57.34
76011;BME280;64701;43.536;1.478;2023-08-06T08:39:31;100085.41;;;19.87;57.68
76011;BME280;64701;43.536;1.478;2023-08-06T08:41:56;100083.75;;;19.86;56.88
76011;BME280;64701;43.536;1.478;2023-08-06T08:44:22;100089.13;;;19.86;56.94
76011;BME280;64701;43.536;1.478;2023-08-06T08:46:48;100084.94;;;19.90;57.41
76011;BME280;64701;43.536;1.478;2023-08-06T08:49:14;100088.16;;;20.04;57.57
76011;BME280;64701;43.536;1.478;2023-08-06T08:51:39;100090.38;;;20.07;56.63
76011;BME280;64701;43.536;1.478;2023-08-06T08:54:05;100082.69;;;19.98;55.36
76011;BME280;64701;43.536;1.478;2023-08-06T08:56:33;100086.41;;;19.97;55.73
76011;BME280;64701;43.536;1.478;2023-08-06T08:58:58;100087.31;;;20.03;56.27
76011;BME280;64701;43.536;1.478;2023-08-06T09:01:24;100095.97;;;20.05;56.35
76011;BME280;64701;43.536;1.478;2023-08-06T09:03:49;100101.13;;;20.07;56.31
76011;BME280;64701;43.536;1.478;2023-08-06T09:06:15;100094.47;;;19.97;55.07
76011;BME280;64701;43.536;1.478;2023-08-06T09:08:43;100088.91;;;19.87;54.39
76011;BME280;64701;43.536;1.478;2023-08-06T09:11:12;100094.56;;;20.03;54.95
76011;BME280;64701;43.536;1.478;2023-08-06T09:13:37;100095.06;;;20.00;54.45
76011;BME280;64701;43.536;1.478;2023-08-06T09:16:03;100101.69;;;20.09;54.63
76011;BME280;64701;43.536;1.478;2023-08-06T09:18:29;100093.34;;;19.93;54.90
76011;BME280;64701;43.536;1.478;2023-08-06T09:20:55;100092.75;;;19.91;54.24
76011;BME280;64701;43.536;1.478;2023-08-06T09:23:21;100098.13;;;19.91;53.98
76011;BME280;64701;43.536;1.478;2023-08-06T09:25:53;100084.34;;;19.88;53.62
76011;BME280;64701;43.536;1.478;2023-08-06T09:28:18;100094.97;;;19.94;54.30
76011;BME280;64701;43.536;1.478;2023-08-06T09:30:43;100102.44;;;19.92;53.80
76011;BME280;64701;43.536;1.478;2023-08-06T09:33:12;100084.31;;;20.00;53.44
76011;BME280;64701;43.536;1.478;2023-08-06T09:35:42;100096.47;;;19.90;53.35
76011;BME280;64701;43.536;1.478;2023-08-06T09:38:08;100092.28;;;19.94;53.72
76011;BME280;64701;43.536;1.478;2023-08-06T09:40:34;100094.56;;;20.03;54.31
76011;BME280;64701;43.536;1.478;2023-08-06T09:43:00;100087.50;;;20.25;55.31
76011;BME280;64701;43.536;1.478;2023-08-06T09:45:32;100088.13;;;20.44;54.51
76011;BME280;64701;43.536;1.478;2023-08-06T09:47:58;100082.78;;;20.60;53.34
76011;BME280;64701;43.536;1.478;2023-08-06T09:50:26;100078.44;;;20.59;52.16
76011;BME280;64701;43.536;1.478;2023-08-06T09:52:53;100073.47;;;20.68;52.69
76011;BME280;64701;43.536;1.478;2023-08-06T09:55:20;100080.31;;;20.75;52.16
76011;BME280;64701;43.536;1.478;2023-08-06T09:57:46;100077.31;;;20.89;52.49
76011;BME280;64701;43.536;1.478;2023-08-06T10:00:12;100080.91;;;20.94;52.03
76011;BME280;64701;43.536;1.478;2023-08-06T10:02:38;100067.16;;;21.12;50.40
76011;BME280;64701;43.536;1.478;2023-08-06T10:05:07;100075.75;;;21.26;50.14
76011;BME280;64701;43.536;1.478;2023-08-06T10:07:33;100079.00;;;21.28;50.40
76011;BME280;64701;43.536;1.478;2023-08-06T10:09:58;100083.03;;;21.26;49.44
76011;BME280;64701;43.536;1.478;2023-08-06T10:12:24;100079.69;;;21.18;49.81
76011;BME280;64701;43.536;1.478;2023-08-06T10:14:51;100086.72;;;21.20;50.42
76011;BME280;64701;43.536;1.478;2023-08-06T10:17:18;100078.59;;;21.36;51.37
76011;BME280;64701;43.536;1.478;2023-08-06T10:19:44;100082.34;;;21.35;49.71
76011;BME280;64701;43.536;1.478;2023-08-06T10:24:50;100082.94;;;21.59;49.25
76011;BME280;64701;43.536;1.478;2023-08-06T10:27:23;100086.13;;;21.56;49.61
76011;BME280;64701;43.536;1.478;2023-08-06T10:29:52;100085.88;;;21.57;48.98
76011;BME280;64701;43.536;1.478;2023-08-06T10:32:18;100090.25;;;21.64;48.84
76011;BME280;64701;43.536;1.478;2023-08-06T10:34:53;100085.31;;;21.55;48.31
76011;BME280;64701;43.536;1.478;2023-08-06T10:37:18;100075.28;;;21.73;49.38
76011;BME280;64701;43.536;1.478;2023-08-06T10:39:50;100076.41;;;21.77;48.34
76011;BME280;64701;43.536;1.478;2023-08-06T10:42:19;100079.28;;;21.70;48.35
76011;BME280;64701;43.536;1.478;2023-08-06T10:47:29;100076.81;;;21.85;48.51
76011;BME280;64701;43.536;1.478;2023-08-06T10:49:54;100073.34;;;21.90;48.23
76011;BME280;64701;43.536;1.478;2023-08-06T10:52:20;100072.22;;;22.08;47.94
76011;BME280;64701;43.536;1.478;2023-08-06T10:54:45;100069.66;;;21.96;46.73
76011;BME280;64701;43.536;1.478;2023-08-06T10:57:11;100075.47;;;21.88;47.76
76011;BME280;64701;43.536;1.478;2023-08-06T10:59:36;100083.59;;;21.93;47.12
76011;BME280;64701;43.536;1.478;2023-08-06T11:02:02;100076.13;;;21.95;47.98
76011;BME280;64701;43.536;1.478;2023-08-06T11:04:30;100065.91;;;21.97;46.67
76011;BME280;64701;43.536;1.478;2023-08-06T11:06:56;100070.63;;;22.12;47.50
76011;BME280;64701;43.536;1.478;2023-08-06T11:09:21;100065.16;;;22.28;47.67
76011;BME280;64701;43.536;1.478;2023-08-06T11:11:46;100060.41;;;22.40;46.11
76011;BME280;64701;43.536;1.478;2023-08-06T11:14:15;100060.94;;;22.69;45.57
76011;BME280;64701;43.536;1.478;2023-08-06T11:16:40;100071.06;;;22.84;44.49
76011;BME280;64701;43.536;1.478;2023-08-06T11:19:07;100058.66;;;22.88;43.91
76011;BME280;64701;43.536;1.478;2023-08-06T11:21:33;100064.84;;;22.84;43.83
76011;BME280;64701;43.536;1.478;2023-08-06T11:23:58;100069.16;;;22.79;44.93
76011;BME280;64701;43.536;1.478;2023-08-06T11:26:24;100066.56;;;22.63;44.76
76011;BME280;64701;43.536;1.478;2023-08-06T11:28:49;100053.31;;;22.61;45.41
76011;BME280;64701;43.536;1.478;2023-08-06T11:31:18;100064.16;;;22.66;45.15
76011;BME280;64701;43.536;1.478;2023-08-06T11:33:43;100059.22;;;22.58;44.54
76011;BME280;64701;43.536;1.478;2023-08-06T11:36:09;100051.75;;;22.70;44.73
76011;BME280;64701;43.536;1.478;2023-08-06T11:38:34;100054.56;;;22.75;44.77
76011;BME280;64701;43.536;1.478;2023-08-06T11:40:59;100046.19;;;22.82;45.63
76011;BME280;64701;43.536;1.478;2023-08-06T11:43:25;100049.41;;;22.74;44.51
76011;BME280;64701;43.536;1.478;2023-08-06T11:45:50;100047.69;;;22.68;45.84
76011;BME280;64701;43.536;1.478;2023-08-06T11:48:16;100037.63;;;22.58;45.21
76011;BME280;64701;43.536;1.478;2023-08-06T11:50:41;100035.50;;;22.92;44.29
76011;BME280;64701;43.536;1.478;2023-08-06T11:53:07;100038.81;;;23.04;42.61
76011;BME280;64701;43.536;1.478;2023-08-06T11:55:33;100030.00;;;23.24;42.41
76011;BME280;64701;43.536;1.478;2023-08-06T11:57:59;100027.75;;;23.53;42.82
76011;BME280;64701;43.536;1.478;2023-08-06T12:00:28;100028.06;;;23.67;42.16
76011;BME280;64701;43.536;1.478;2023-08-06T12:02:53;100034.06;;;23.84;42.29
76011;BME280;64701;43.536;1.478;2023-08-06T12:05:20;100022.63;;;23.56;41.74
76011;BME280;64701;43.536;1.478;2023-08-06T12:07:52;100036.63;;;23.48;42.27
76011;BME280;64701;43.536;1.478;2023-08-06T12:10:18;100034.75;;;23.54;41.63
76011;BME280;64701;43.536;1.478;2023-08-06T12:12:47;100034.25;;;23.52;41.65
76011;BME280;64701;43.536;1.478;2023-08-06T12:15:12;100024.53;;;23.61;41.43
76011;BME280;64701;43.536;1.478;2023-08-06T12:17:38;100016.25;;;23.93;42.14
76011;BME280;64701;43.536;1.478;2023-08-06T12:20:04;100024.03;;;23.74;40.94
76011;BME280;64701;43.536;1.478;2023-08-06T12:22:29;100025.44;;;23.87;41.14
76011;BME280;64701;43.536;1.478;2023-08-06T12:24:59;100019.22;;;23.91;41.43
76011;BME280;64701;43.536;1.478;2023-08-06T12:27:24;100015.44;;;23.97;41.97
76011;BME280;64701;43.536;1.478;2023-08-06T12:29:50;100016.00;;;24.10;40.40
76011;BME280;64701;43.536;1.478;2023-08-06T12:32:15;100014.88;;;23.95;39.55
76011;BME280;64701;43.536;1.478;2023-08-06T12:34:41;100011.41;;;24.10;40.04
76011;BME280;64701;43.536;1.478;2023-08-06T12:37:06;100007.38;;;24.13;39.02
76011;BME280;64701;43.536;1.478;2023-08-06T12:39:32;99978.13;;;23.99;38.39
76011;BME280;64701;43.536;1.478;2023-08-06T12:41:58;100014.38;;;23.98;39.28
76011;BME280;64701;43.536;1.478;2023-08-06T12:44:24;100002.47;;;24.05;38.46
76011;BME280;64701;43.536;1.478;2023-08-06T12:46:50;100009.53;;;24.16;39.22
76011;BME280;64701;43.536;1.478;2023-08-06T12:49:15;100005.00;;;24.36;37.62
76011;BME280;64701;43.536;1.478;2023-08-06T12:51:41;100003.63;;;24.59;38.40
76011;BME280;64701;43.536;1.478;2023-08-06T12:54:06;100002.25;;;24.72;36.43
76011;BME280;64701;43.536;1.478;2023-08-06T12:56:31;100001.44;;;24.61;38.61
76011;BME280;64701;43.536;1.478;2023-08-06T12:58:56;99995.47;;;24.85;37.38
76011;BME280;64701;43.536;1.478;2023-08-06T13:01:22;100011.72;;;24.85;38.37